Time;durP1;ratioP1;P1;durP2;ratioP2;P2;SDS_P1;SDS_P2;PMS_P1;PMS_P2;Temp;Humidity;BMP_temperature;BMP_pressure;BME280_temperature;BME280_humidity;BME280_pressure;Samples;Min_cycle;Max_cycle;Signal;HPM_P1;HPM_P2
2023/10/31 00:00:06;0.00;0.00;0.62;0.00;0.00;0.62;6.73;5.50;;;24.50;30.30;;;;;;2256434;61;20373;-59
2023/10/31 00:02:51;0.00;0.00;0.62;0.00;0.00;0.62;6.00;5.40;;;24.50;30.40;;;;;;2256397;61;20361;-60
2023/10/31 00:05:35;0.00;0.00;0.62;0.00;0.00;0.62;6.10;5.50;;;24.50;30.40;;;;;;2256842;61;20914;-61
2023/10/31 00:08:20;0.00;0.00;0.62;0.00;0.00;0.62;7.20;5.03;;;24.50;30.40;;;;;;2256328;61;20374;-62
2023/10/31 00:11:05;0.00;0.00;0.62;0.00;0.00;0.62;6.03;4.93;;;24.50;30.40;;;;;;2256916;61;20529;-61
2023/10/31 00:13:51;0.00;0.00;0.62;0.00;0.00;0.62;7.23;6.17;;;24.50;30.30;;;;;;2256421;61;20393;-62
2023/10/31 00:16:36;0.00;0.00;0.62;0.00;0.00;0.62;6.77;6.00;;;24.50;30.30;;;;;;2256558;61;20890;-62
2023/10/31 00:19:20;0.00;0.00;0.62;0.00;0.00;0.62;7.10;6.40;;;24.50;30.30;;;;;;2256476;61;20362;-60
2023/10/31 00:22:05;0.00;0.00;0.62;0.00;0.00;0.62;5.73;5.00;;;24.50;30.30;;;;;;2256638;61;20949;-60
2023/10/31 00:24:49;0.00;0.00;0.62;0.00;0.00;0.62;6.83;5.83;;;24.50;30.40;;;;;;2256601;61;20417;-62
2023/10/31 00:27:34;0.00;0.00;0.62;0.00;0.00;0.62;6.33;5.40;;;24.50;30.30;;;;;;2256853;61;20370;-60
2023/10/31 00:30:21;0.00;0.00;0.62;0.00;0.00;0.62;6.30;5.57;;;24.50;30.40;;;;;;2256559;61;21046;-60
2023/10/31 00:33:05;0.00;0.00;0.62;0.00;0.00;0.62;5.97;5.33;;;24.50;30.40;;;;;;2256596;61;20381;-60
2023/10/31 00:35:50;0.00;0.00;0.62;0.00;0.00;0.62;6.27;5.67;;;24.50;30.40;;;;;;2256772;61;20933;-56
2023/10/31 00:38:34;0.00;0.00;0.62;0.00;0.00;0.62;6.20;5.60;;;24.40;30.30;;;;;;2255491;61;20377;-61
2023/10/31 00:41:19;0.00;0.00;0.62;0.00;0.00;0.62;5.03;4.63;;;24.50;30.40;;;;;;2256634;61;20409;-59
2023/10/31 00:44:04;0.00;0.00;0.62;0.00;0.00;0.62;6.83;5.53;;;24.50;30.30;;;;;;2256812;61;20448;-61
2023/10/31 00:46:50;0.00;0.00;0.62;0.00;0.00;0.62;5.50;4.90;;;24.50;30.40;;;;;;2256553;61;20788;-58
2023/10/31 00:49:35;0.00;0.00;0.62;0.00;0.00;0.62;6.13;5.00;;;24.50;30.40;;;;;;2256416;61;20592;-58
2023/10/31 00:52:21;0.00;0.00;0.62;0.00;0.00;0.62;6.23;5.00;;;24.40;30.20;;;;;;2256432;61;20413;-58
2023/10/31 00:57:48;0.00;0.00;0.62;0.00;0.00;0.62;6.40;5.60;;;24.40;30.30;;;;;;2254298;61;20850;-56
2023/10/31 01:00:34;0.00;0.00;0.62;0.00;0.00;0.62;5.03;4.53;;;24.50;30.40;;;;;;2249374;61;20358;-62
2023/10/31 01:03:20;0.00;0.00;0.62;0.00;0.00;0.62;5.37;4.37;;;24.40;30.30;;;;;;2246426;61;20429;-59
2023/10/31 01:06:04;0.00;0.00;0.62;0.00;0.00;0.62;6.13;5.27;;;24.40;30.90;;;;;;2252454;61;20370;-58
2023/10/31 01:08:49;0.00;0.00;0.62;0.00;0.00;0.62;5.40;4.77;;;24.50;30.40;;;;;;2252087;61;20387;-61
2023/10/31 01:11:34;0.00;0.00;0.62;0.00;0.00;0.62;6.70;5.57;;;24.40;30.30;;;;;;2249504;61;20390;-60
2023/10/31 01:14:18;0.00;0.00;0.62;0.00;0.00;0.62;5.80;4.90;;;24.50;30.40;;;;;;2252029;61;20386;-59
2023/10/31 01:17:03;0.00;0.00;0.62;0.00;0.00;0.62;5.90;4.80;;;24.40;30.30;;;;;;2249302;61;20394;-56
2023/10/31 01:19:49;0.00;0.00;0.62;0.00;0.00;0.62;5.40;4.57;;;24.40;30.30;;;;;;2252167;61;20367;-61
2023/10/31 01:22:34;0.00;0.00;0.62;0.00;0.00;0.62;6.40;5.70;;;24.50;30.40;;;;;;2252352;61;20776;-61
2023/10/31 01:25:18;0.00;0.00;0.62;0.00;0.00;0.62;4.67;4.27;;;24.40;30.30;;;;;;2252719;61;20417;-61
2023/10/31 01:28:03;0.00;0.00;0.62;0.00;0.00;0.62;5.60;4.73;;;24.50;30.40;;;;;;2252220;61;20366;-56
2023/10/31 01:30:48;0.00;0.00;0.62;0.00;0.00;0.62;5.03;4.20;;;24.50;30.40;;;;;;2252446;61;20355;-60
2023/10/31 01:33:33;0.00;0.00;0.62;0.00;0.00;0.62;4.77;4.27;;;24.40;30.30;;;;;;2252525;61;20393;-59
2023/10/31 01:36:23;0.00;0.00;0.62;0.00;0.00;0.62;4.57;3.97;;;24.40;30.30;;;;;;2252547;61;20370;-59
2023/10/31 01:39:08;0.00;0.00;0.62;0.00;0.00;0.62;6.20;5.10;;;24.40;30.30;;;;;;2252163;61;20638;-60
2023/10/31 01:41:54;0.00;0.00;0.62;0.00;0.00;0.62;5.43;4.63;;;24.50;30.40;;;;;;2249086;61;20425;-58
2023/10/31 01:44:39;0.00;0.00;0.62;0.00;0.00;0.62;5.03;4.10;;;24.40;30.30;;;;;;2252507;61;20791;-60
2023/10/31 01:47:24;0.00;0.00;0.62;0.00;0.00;0.62;4.70;3.93;;;24.50;30.40;;;;;;2252016;61;20486;-58
2023/10/31 01:50:10;0.00;0.00;0.62;0.00;0.00;0.62;5.10;4.10;;;24.50;30.40;;;;;;2247268;61;20438;-60
2023/10/31 01:52:56;0.00;0.00;0.62;0.00;0.00;0.62;5.20;4.63;;;24.50;30.40;;;;;;2248302;61;20367;-60
2023/10/31 01:55:41;0.00;0.00;0.62;0.00;0.00;0.62;5.30;4.67;;;24.40;30.30;;;;;;2245301;61;20423;-60
2023/10/31 01:58:31;0.00;0.00;0.62;0.00;0.00;0.62;4.83;4.17;;;24.50;30.40;;;;;;2245135;61;20403;-58
2023/10/31 02:01:15;0.00;0.00;0.62;0.00;0.00;0.62;4.57;4.10;;;24.40;30.30;;;;;;2245177;61;20360;-60
2023/10/31 02:04:02;0.00;0.00;0.62;0.00;0.00;0.62;5.20;4.10;;;24.40;30.30;;;;;;2248520;61;20419;-62
2023/10/31 02:06:47;0.00;0.00;0.62;0.00;0.00;0.62;4.20;3.77;;;24.40;30.30;;;;;;2248655;61;20965;-57
2023/10/31 02:09:33;0.00;0.00;0.62;0.00;0.00;0.62;5.23;4.57;;;24.40;30.30;;;;;;2245542;61;20435;-62
2023/10/31 02:12:32;0.00;0.00;0.62;0.00;0.00;0.62;5.20;3.87;;;24.40;30.30;;;;;;2249038;61;20523;-59
2023/10/31 02:15:17;0.00;0.00;0.62;0.00;0.00;0.62;4.40;3.70;;;24.40;30.30;;;;;;2249021;61;20419;-61
2023/10/31 02:18:01;0.00;0.00;0.62;0.00;0.00;0.62;4.13;3.60;;;24.40;30.30;;;;;;2245689;61;20851;-60
2023/10/31 02:20:46;0.00;0.00;0.62;0.00;0.00;0.62;4.83;4.30;;;24.40;30.30;;;;;;2246017;61;20770;-61
2023/10/31 02:23:32;0.00;0.00;0.62;0.00;0.00;0.62;4.83;4.03;;;24.40;30.30;;;;;;2614728;45;20790;-64
2023/10/31 02:26:16;0.00;0.00;0.62;0.00;0.00;0.62;4.00;3.50;;;24.40;30.30;;;;;;2249076;61;20379;-57
2023/10/31 02:29:02;0.00;0.00;0.62;0.00;0.00;0.62;4.10;3.40;;;24.40;30.40;;;;;;2246882;61;20446;-58
2023/10/31 02:31:47;0.00;0.00;0.62;0.00;0.00;0.62;4.87;3.63;;;24.40;30.40;;;;;;2249643;61;20366;-61
2023/10/31 02:34:32;0.00;0.00;0.62;0.00;0.00;0.62;4.70;3.80;;;24.40;30.30;;;;;;2252299;61;20445;-58
2023/10/31 02:37:16;0.00;0.00;0.62;0.00;0.00;0.62;5.20;4.40;;;24.40;30.30;;;;;;2252856;61;20454;-62
2023/10/31 02:40:03;0.00;0.00;0.62;0.00;0.00;0.62;3.87;3.40;;;24.40;30.40;;;;;;2252416;61;20405;-59
2023/10/31 02:42:48;0.00;0.00;0.62;0.00;0.00;0.62;4.73;3.70;;;24.40;30.40;;;;;;2252835;61;20390;-60
2023/10/31 02:45:33;0.00;0.00;0.62;0.00;0.00;0.62;5.00;4.40;;;24.40;30.40;;;;;;2252094;61;20369;-59
2023/10/31 02:48:20;0.00;0.00;0.62;0.00;0.00;0.62;5.13;4.13;;;24.40;30.40;;;;;;2249217;61;20892;-59
2023/10/31 02:51:05;0.00;0.00;0.62;0.00;0.00;0.62;3.97;3.57;;;24.40;30.40;;;;;;2249532;61;20395;-59
2023/10/31 02:53:49;0.00;0.00;0.62;0.00;0.00;0.62;4.10;3.47;;;24.40;30.40;;;;;;2252978;61;20924;-57
2023/10/31 02:56:35;0.00;0.00;0.62;0.00;0.00;0.62;3.80;3.23;;;24.40;30.40;;;;;;2252775;61;20414;-59
2023/10/31 02:59:19;0.00;0.00;0.62;0.00;0.00;0.62;4.07;3.67;;;24.40;30.40;;;;;;2249832;61;20463;-61
2023/10/31 03:02:04;0.00;0.00;0.62;0.00;0.00;0.62;4.00;3.60;;;24.40;30.40;;;;;;2252793;61;20374;-58
2023/10/31 03:04:49;0.00;0.00;0.62;0.00;0.00;0.62;2.90;2.50;;;24.40;30.40;;;;;;2253053;61;20383;-58
2023/10/31 03:07:33;0.00;0.00;0.62;0.00;0.00;0.62;3.80;3.17;;;24.40;30.40;;;;;;2252513;61;20363;-62
2023/10/31 03:10:17;0.00;0.00;0.62;0.00;0.00;0.62;4.40;3.43;;;24.40;30.40;;;;;;2249728;61;20942;-61
2023/10/31 03:13:03;0.00;0.00;0.62;0.00;0.00;0.62;3.80;3.10;;;24.40;30.40;;;;;;2579876;45;20366;-60
2023/10/31 03:15:49;0.00;0.00;0.62;0.00;0.00;0.62;3.80;3.13;;;24.40;30.40;;;;;;2252722;61;20892;-59
2023/10/31 03:18:33;0.00;0.00;0.62;0.00;0.00;0.62;4.27;3.50;;;24.40;30.40;;;;;;2249127;61;20841;-62
2023/10/31 03:21:18;0.00;0.00;0.62;0.00;0.00;0.62;4.47;3.30;;;24.40;30.40;;;;;;2249673;61;20371;-60
2023/10/31 03:24:04;0.00;0.00;0.62;0.00;0.00;0.62;3.67;3.27;;;24.30;30.30;;;;;;2252912;61;20891;-60
2023/10/31 03:26:49;0.00;0.00;0.62;0.00;0.00;0.62;4.60;4.03;;;24.30;30.30;;;;;;2252737;61;20382;-59
2023/10/31 03:29:35;0.00;0.00;0.62;0.00;0.00;0.62;4.27;3.27;;;24.40;30.40;;;;;;2252207;61;20394;-59
2023/10/31 03:32:20;0.00;0.00;0.62;0.00;0.00;0.62;3.97;3.40;;;24.40;30.40;;;;;;2253116;61;20928;-61
2023/10/31 03:35:05;0.00;0.00;0.62;0.00;0.00;0.62;4.60;3.33;;;24.40;30.40;;;;;;2249615;61;20592;-60
2023/10/31 03:37:50;0.00;0.00;0.62;0.00;0.00;0.62;3.30;2.90;;;24.40;30.40;;;;;;2252690;61;20367;-61
2023/10/31 03:40:35;0.00;0.00;0.62;0.00;0.00;0.62;4.33;2.97;;;24.40;30.40;;;;;;2252707;61;21055;-61
2023/10/31 03:43:19;0.00;0.00;0.62;0.00;0.00;0.62;3.23;2.93;;;24.40;30.40;;;;;;2252701;61;20394;-60
2023/10/31 03:46:06;0.00;0.00;0.62;0.00;0.00;0.62;3.00;2.70;;;24.30;30.40;;;;;;2249713;61;20494;-58
2023/10/31 03:48:51;0.00;0.00;0.62;0.00;0.00;0.62;3.07;2.43;;;24.40;30.40;;;;;;2249166;61;20378;-59
2023/10/31 03:51:35;0.00;0.00;0.62;0.00;0.00;0.62;3.27;2.60;;;24.30;30.40;;;;;;2252641;61;20363;-58
2023/10/31 03:54:20;0.00;0.00;0.62;0.00;0.00;0.62;3.10;2.07;;;24.30;30.30;;;;;;2249574;61;20913;-62
2023/10/31 03:57:05;0.00;0.00;0.62;0.00;0.00;0.62;4.03;2.67;;;24.40;30.40;;;;;;2252679;61;20366;-59
2023/10/31 03:59:50;0.00;0.00;0.62;0.00;0.00;0.62;3.30;2.50;;;24.30;30.40;;;;;;2252171;61;20427;-60
2023/10/31 04:02:35;0.00;0.00;0.62;0.00;0.00;0.62;3.10;2.50;;;24.30;30.30;;;;;;2252657;61;20537;-58
2023/10/31 04:05:21;0.00;0.00;0.62;0.00;0.00;0.62;3.43;2.50;;;24.30;31.00;;;;;;2249498;61;20370;-63
2023/10/31 04:08:06;0.00;0.00;0.62;0.00;0.00;0.62;3.20;2.60;;;24.30;30.30;;;;;;2252294;61;20399;-59
2023/10/31 04:10:50;0.00;0.00;0.62;0.00;0.00;0.62;3.37;2.33;;;24.30;30.30;;;;;;2252651;61;20795;-61
2023/10/31 04:13:35;0.00;0.00;0.62;0.00;0.00;0.62;2.70;2.40;;;24.30;30.30;;;;;;2249221;61;20429;-60
2023/10/31 04:16:19;0.00;0.00;0.62;0.00;0.00;0.62;2.70;2.23;;;24.30;30.30;;;;;;2252789;61;20425;-62
2023/10/31 04:19:05;0.00;0.00;0.62;0.00;0.00;0.62;3.13;2.20;;;24.30;30.30;;;;;;2252456;61;20494;-59
2023/10/31 04:21:50;0.00;0.00;0.62;0.00;0.00;0.62;3.40;2.50;;;24.30;30.20;;;;;;2252611;61;20375;-62
2023/10/31 04:24:35;0.00;0.00;0.62;0.00;0.00;0.62;2.40;2.20;;;24.30;30.20;;;;;;2252547;61;20963;-61
2023/10/31 04:27:19;0.00;0.00;0.62;0.00;0.00;0.62;2.73;2.13;;;24.30;30.20;;;;;;2252795;61;20449;-60
2023/10/31 04:30:06;0.00;0.00;0.62;0.00;0.00;0.62;3.03;2.30;;;24.30;30.20;;;;;;2252255;61;20397;-58
2023/10/31 04:32:51;0.00;0.00;0.62;0.00;0.00;0.62;3.10;1.97;;;24.30;30.20;;;;;;2252176;61;20422;-61
2023/10/31 04:35:36;0.00;0.00;0.62;0.00;0.00;0.62;2.97;2.20;;;24.30;30.20;;;;;;2252587;61;20363;-58
2023/10/31 04:38:21;0.00;0.00;0.62;0.00;0.00;0.62;2.90;2.40;;;24.30;30.20;;;;;;2252123;61;20383;-59
2023/10/31 04:41:07;0.00;0.00;0.62;0.00;0.00;0.62;2.20;1.57;;;24.30;30.20;;;;;;2252478;61;20447;-61
2023/10/31 04:43:52;0.00;0.00;0.62;0.00;0.00;0.62;3.23;2.40;;;24.30;30.20;;;;;;2252606;61;20516;-62
2023/10/31 04:46:37;0.00;0.00;0.62;0.00;0.00;0.62;2.57;1.77;;;24.30;30.20;;;;;;2252513;61;20506;-62
2023/10/31 04:49:21;0.00;0.00;0.62;0.00;0.00;0.62;2.70;1.90;;;24.30;30.20;;;;;;2252200;61;20390;-59
2023/10/31 04:52:07;0.00;0.00;0.62;0.00;0.00;0.62;2.33;1.73;;;24.30;30.20;;;;;;2252615;61;20888;-62
2023/10/31 04:54:52;0.00;0.00;0.62;0.00;0.00;0.62;2.20;1.57;;;24.30;30.20;;;;;;2252698;61;20391;-60
2023/10/31 04:57:36;0.00;0.00;0.62;0.00;0.00;0.62;2.23;1.70;;;24.30;30.10;;;;;;2252484;61;20896;-61
2023/10/31 05:00:21;0.00;0.00;0.62;0.00;0.00;0.62;2.97;1.90;;;24.30;30.10;;;;;;2249566;61;20487;-60
2023/10/31 05:03:05;0.00;0.00;0.62;0.00;0.00;0.62;2.03;1.40;;;24.30;30.10;;;;;;2252840;61;20470;-53
2023/10/31 05:05:50;0.00;0.00;0.62;0.00;0.00;0.62;2.47;1.97;;;24.30;30.20;;;;;;2252362;61;20367;-60
2023/10/31 05:08:36;0.00;0.00;0.62;0.00;0.00;0.62;1.93;1.50;;;24.30;30.10;;;;;;2252251;61;20383;-60
2023/10/31 05:11:20;0.00;0.00;0.62;0.00;0.00;0.62;1.97;1.40;;;24.30;30.10;;;;;;2252603;61;20770;-60
2023/10/31 05:14:07;0.00;0.00;0.62;0.00;0.00;0.62;2.30;1.60;;;24.30;30.10;;;;;;2252391;61;20389;-59
2023/10/31 05:16:52;0.00;0.00;0.62;0.00;0.00;0.62;2.23;1.60;;;24.20;30.00;;;;;;2252386;61;20394;-62
2023/10/31 05:19:36;0.00;0.00;0.62;0.00;0.00;0.62;1.90;1.20;;;24.20;30.00;;;;;;2251994;61;20418;-59
2023/10/31 05:22:21;0.00;0.00;0.62;0.00;0.00;0.62;1.83;1.30;;;24.30;30.10;;;;;;2252806;61;20425;-62
2023/10/31 05:25:07;0.00;0.00;0.62;0.00;0.00;0.62;2.33;1.60;;;24.20;30.00;;;;;;2252301;61;20418;-59
2023/10/31 05:27:52;0.00;0.00;0.62;0.00;0.00;0.62;2.00;1.63;;;24.20;30.00;;;;;;2252338;61;20375;-58
2023/10/31 05:30:37;0.00;0.00;0.62;0.00;0.00;0.62;2.13;1.43;;;24.20;30.00;;;;;;2252677;61;20438;-59
2023/10/31 05:33:23;0.00;0.00;0.62;0.00;0.00;0.62;2.37;1.60;;;24.20;30.00;;;;;;2252484;61;20517;-60
2023/10/31 05:36:19;0.00;0.00;0.62;0.00;0.00;0.62;1.73;1.13;;;24.30;30.00;;;;;;2252414;61;20382;-56
2023/10/31 05:39:04;0.00;0.00;0.62;0.00;0.00;0.62;3.33;1.33;;;24.20;30.00;;;;;;2252169;61;20354;-60
2023/10/31 05:41:50;0.00;0.00;0.62;0.00;0.00;0.62;2.03;1.27;;;24.30;30.00;;;;;;2252180;61;20367;-59
2023/10/31 05:44:34;0.00;0.00;0.62;0.00;0.00;0.62;1.57;1.00;;;24.20;29.90;;;;;;2252420;61;20417;-60
2023/10/31 05:47:19;0.00;0.00;0.62;0.00;0.00;0.62;1.77;1.10;;;24.20;29.90;;;;;;2252525;61;20366;-59
2023/10/31 05:50:05;0.00;0.00;0.62;0.00;0.00;0.62;1.70;1.20;;;24.20;29.90;;;;;;2251912;61;20910;-61
2023/10/31 05:52:50;0.00;0.00;0.62;0.00;0.00;0.62;1.80;1.20;;;24.20;29.90;;;;;;2252721;61;20418;-61
2023/10/31 05:55:38;0.00;0.00;0.62;0.00;0.00;0.62;1.70;1.13;;;24.20;29.90;;;;;;2252438;61;20410;-61
2023/10/31 05:58:24;0.00;0.00;0.62;0.00;0.00;0.62;2.07;1.30;;;24.20;29.90;;;;;;2251987;61;20884;-59
2023/10/31 06:01:09;0.00;0.00;0.62;0.00;0.00;0.62;1.67;1.00;;;24.20;29.90;;;;;;2252744;61;20935;-62
2023/10/31 06:03:53;0.00;0.00;0.62;0.00;0.00;0.62;2.13;0.90;;;24.20;29.90;;;;;;2252121;61;20394;-61
2023/10/31 06:06:39;0.00;0.00;0.62;0.00;0.00;0.62;1.63;1.00;;;24.20;29.90;;;;;;2252444;61;20402;-61
2023/10/31 06:09:24;0.00;0.00;0.62;0.00;0.00;0.62;2.10;1.27;;;24.20;29.90;;;;;;2251864;61;20418;-57
2023/10/31 06:12:08;0.00;0.00;0.62;0.00;0.00;0.62;1.83;0.97;;;24.20;29.90;;;;;;2252245;61;20378;-59
2023/10/31 06:14:55;0.00;0.00;0.62;0.00;0.00;0.62;1.70;1.10;;;24.20;29.90;;;;;;2252315;61;20382;-57
2023/10/31 06:17:40;0.00;0.00;0.62;0.00;0.00;0.62;1.93;1.20;;;24.20;29.90;;;;;;2252580;61;20899;-58
2023/10/31 06:20:26;0.00;0.00;0.62;0.00;0.00;0.62;1.73;1.10;;;24.20;29.90;;;;;;2252379;61;20386;-57
2023/10/31 06:23:11;0.00;0.00;0.62;0.00;0.00;0.62;1.73;1.03;;;24.20;29.90;;;;;;2252689;61;20864;-56
2023/10/31 06:25:56;0.00;0.00;0.62;0.00;0.00;0.62;1.60;1.00;;;24.20;30.50;;;;;;2252304;61;20830;-59
2023/10/31 06:28:40;0.00;0.00;0.62;0.00;0.00;0.62;1.63;0.87;;;24.20;29.90;;;;;;2252045;61;20787;-59
2023/10/31 06:31:26;0.00;0.00;0.62;0.00;0.00;0.62;1.57;0.97;;;24.20;29.90;;;;;;2252422;61;20865;-59
2023/10/31 06:34:10;0.00;0.00;0.62;0.00;0.00;0.62;1.50;0.97;;;24.20;29.90;;;;;;2252368;61;20390;-60
2023/10/31 06:36:55;0.00;0.00;0.62;0.00;0.00;0.62;1.67;1.03;;;24.10;29.90;;;;;;2248973;61;20899;-57
2023/10/31 06:39:39;0.00;0.00;0.62;0.00;0.00;0.62;1.90;1.07;;;24.10;29.80;;;;;;2252258;61;20905;-60
2023/10/31 06:42:24;0.00;0.00;0.62;0.00;0.00;0.62;2.73;1.20;;;24.10;29.90;;;;;;2252170;61;20367;-60
2023/10/31 06:45:09;0.00;0.00;0.62;0.00;0.00;0.62;1.50;0.97;;;24.10;29.90;;;;;;2251924;61;20390;-58
2023/10/31 06:47:55;0.00;0.00;0.62;0.00;0.00;0.62;2.33;1.13;;;24.10;29.90;;;;;;2251976;61;20505;-61
2023/10/31 06:50:40;0.00;0.00;0.62;0.00;0.00;0.62;1.50;1.00;;;24.10;29.90;;;;;;2252428;61;20521;-59
2023/10/31 06:53:24;0.00;0.00;0.62;0.00;0.00;0.62;1.70;1.20;;;24.10;29.90;;;;;;2252738;61;20478;-58
2023/10/31 06:56:09;0.00;0.00;0.62;0.00;0.00;0.62;2.07;0.70;;;24.10;29.90;;;;;;2252888;61;20366;-58
2023/10/31 06:58:53;0.00;0.00;0.62;0.00;0.00;0.62;1.93;1.10;;;24.10;29.90;;;;;;2252586;61;20362;-58
2023/10/31 07:01:38;0.00;0.00;0.62;0.00;0.00;0.62;1.63;0.90;;;24.10;29.90;;;;;;2252974;61;20370;-58
2023/10/31 07:04:24;0.00;0.00;0.62;0.00;0.00;0.62;1.93;1.20;;;24.10;29.90;;;;;;2252803;61;20390;-55
2023/10/31 07:07:08;0.00;0.00;0.62;0.00;0.00;0.62;1.90;1.20;;;24.10;29.90;;;;;;2252927;61;20895;-59
2023/10/31 07:09:53;0.00;0.00;0.62;0.00;0.00;0.62;2.13;1.43;;;24.10;29.90;;;;;;2252470;61;20429;-58
2023/10/31 07:12:38;0.00;0.00;0.62;0.00;0.00;0.62;2.60;1.40;;;24.10;29.90;;;;;;2252960;61;20367;-61
2023/10/31 07:15:22;0.00;0.00;0.62;0.00;0.00;0.62;2.17;1.10;;;24.10;29.90;;;;;;2252934;61;20421;-63
2023/10/31 07:18:10;0.00;0.00;0.62;0.00;0.00;0.62;2.20;1.20;;;24.10;29.90;;;;;;2252522;61;20370;-60
2023/10/31 07:20:56;0.00;0.00;0.62;0.00;0.00;0.62;2.30;1.47;;;24.10;29.90;;;;;;2252815;61;20755;-62
2023/10/31 07:23:41;0.00;0.00;0.62;0.00;0.00;0.62;2.10;1.37;;;24.10;29.90;;;;;;2252260;61;20445;-61
2023/10/31 07:26:27;0.00;0.00;0.62;0.00;0.00;0.62;2.20;1.40;;;24.10;29.90;;;;;;2252784;61;20370;-58
2023/10/31 07:29:12;0.00;0.00;0.62;0.00;0.00;0.62;1.93;1.33;;;24.10;29.90;;;;;;2252647;61;20390;-62
2023/10/31 07:31:56;0.00;0.00;0.62;0.00;0.00;0.62;1.97;1.57;;;24.10;29.90;;;;;;2252835;61;20366;-60
2023/10/31 07:34:44;0.00;0.00;0.62;0.00;0.00;0.62;2.50;1.43;;;24.10;30.00;;;;;;2252873;61;20418;-59
2023/10/31 07:37:30;0.00;0.00;0.62;0.00;0.00;0.62;2.30;1.50;;;24.10;30.00;;;;;;2253147;61;20698;-60
2023/10/31 07:40:15;0.00;0.00;0.62;0.00;0.00;0.62;2.50;1.33;;;24.10;29.90;;;;;;2252637;61;20366;-58
2023/10/31 07:43:00;0.00;0.00;0.62;0.00;0.00;0.62;2.00;1.10;;;24.10;30.00;;;;;;2253043;61;20363;-58
2023/10/31 07:45:45;0.00;0.00;0.62;0.00;0.00;0.62;2.57;1.60;;;24.10;29.90;;;;;;2252945;61;20443;-58
2023/10/31 07:48:30;0.00;0.00;0.62;0.00;0.00;0.62;1.80;1.33;;;24.10;29.90;;;;;;2252028;61;20981;-60
2023/10/31 07:51:14;0.00;0.00;0.62;0.00;0.00;0.62;2.77;2.03;;;24.10;29.90;;;;;;2252712;61;20658;-59
2023/10/31 07:54:00;0.00;0.00;0.62;0.00;0.00;0.62;2.00;1.30;;;24.10;29.90;;;;;;2252968;61;20954;-60
2023/10/31 07:56:45;0.00;0.00;0.62;0.00;0.00;0.62;2.10;1.80;;;24.10;29.90;;;;;;2252700;61;20417;-58
2023/10/31 07:59:33;0.00;0.00;0.62;0.00;0.00;0.62;2.20;1.43;;;24.00;29.90;;;;;;2252424;61;20443;-60
2023/10/31 08:02:18;0.00;0.00;0.62;0.00;0.00;0.62;1.93;1.33;;;24.00;29.90;;;;;;2252884;61;20379;-60
2023/10/31 08:05:03;0.00;0.00;0.62;0.00;0.00;0.62;2.30;1.50;;;24.00;29.90;;;;;;2252613;61;20410;-59
2023/10/31 08:07:47;0.00;0.00;0.62;0.00;0.00;0.62;2.40;1.53;;;24.00;29.90;;;;;;2252986;61;20375;-57
2023/10/31 08:10:34;0.00;0.00;0.62;0.00;0.00;0.62;2.40;1.70;;;24.00;29.90;;;;;;2252700;61;20440;-58
2023/10/31 08:13:18;0.00;0.00;0.62;0.00;0.00;0.62;2.57;2.00;;;24.00;29.90;;;;;;2252834;61;20387;-59
2023/10/31 08:16:05;0.00;0.00;0.62;0.00;0.00;0.62;2.57;1.93;;;24.00;29.90;;;;;;2255099;61;20839;-61
2023/10/31 08:18:50;0.00;0.00;0.62;0.00;0.00;0.62;2.83;1.53;;;24.00;29.90;;;;;;2252174;61;20808;-57
2023/10/31 08:21:35;0.00;0.00;0.62;0.00;0.00;0.62;3.40;1.70;;;24.00;29.90;;;;;;2252879;61;20406;-59
2023/10/31 08:24:21;0.00;0.00;0.62;0.00;0.00;0.62;2.40;1.57;;;24.00;29.90;;;;;;2248788;61;20399;-58
2023/10/31 08:27:07;0.00;0.00;0.62;0.00;0.00;0.62;2.47;1.60;;;24.00;29.90;;;;;;2249550;61;20413;-60
2023/10/31 08:29:52;0.00;0.00;0.62;0.00;0.00;0.62;2.20;1.70;;;24.00;29.90;;;;;;2252360;61;20922;-61
2023/10/31 08:32:36;0.00;0.00;0.62;0.00;0.00;0.62;2.63;1.80;;;24.00;29.90;;;;;;2252323;61;20418;-61
2023/10/31 08:35:20;0.00;0.00;0.62;0.00;0.00;0.62;2.63;2.00;;;24.00;29.90;;;;;;2252688;61;20374;-56
2023/10/31 08:38:05;0.00;0.00;0.62;0.00;0.00;0.62;2.37;1.73;;;24.00;29.90;;;;;;2252289;61;20410;-59
2023/10/31 08:40:49;0.00;0.00;0.62;0.00;0.00;0.62;2.50;2.00;;;24.00;29.90;;;;;;2252449;61;20967;-56
2023/10/31 08:43:35;0.00;0.00;0.62;0.00;0.00;0.62;3.03;2.07;;;24.00;29.90;;;;;;2252653;61;20378;-62
2023/10/31 08:46:21;0.00;0.00;0.62;0.00;0.00;0.62;3.17;2.63;;;24.00;29.90;;;;;;2487430;53;20891;-56
2023/10/31 08:49:06;0.00;0.00;0.62;0.00;0.00;0.62;3.63;2.53;;;24.00;29.90;;;;;;2252317;61;20413;-58
2023/10/31 08:51:50;0.00;0.00;0.62;0.00;0.00;0.62;3.67;2.37;;;24.00;29.90;;;;;;2252682;61;20774;-62
2023/10/31 08:54:35;0.00;0.00;0.62;0.00;0.00;0.62;3.30;2.43;;;24.00;30.00;;;;;;2252327;61;20386;-60
2023/10/31 08:57:20;0.00;0.00;0.62;0.00;0.00;0.62;2.80;2.07;;;24.00;30.00;;;;;;2252658;61;20530;-60
2023/10/31 09:00:08;0.00;0.00;0.62;0.00;0.00;0.62;4.00;3.00;;;24.00;30.00;;;;;;2251957;61;20422;-59
2023/10/31 09:02:53;0.00;0.00;0.62;0.00;0.00;0.62;3.50;2.60;;;24.00;30.00;;;;;;2252718;61;20371;-58
2023/10/31 09:05:37;0.00;0.00;0.62;0.00;0.00;0.62;3.67;2.80;;;24.00;30.00;;;;;;2252596;61;20450;-58
2023/10/31 09:08:22;0.00;0.00;0.62;0.00;0.00;0.62;3.00;2.57;;;24.00;30.00;;;;;;2252360;61;20366;-58
2023/10/31 09:11:06;0.00;0.00;0.62;0.00;0.00;0.62;4.60;3.80;;;24.00;30.00;;;;;;2252551;61;20441;-58
2023/10/31 09:13:51;0.00;0.00;0.62;0.00;0.00;0.62;5.03;3.60;;;24.00;30.00;;;;;;2252754;61;20402;-56
2023/10/31 09:16:37;0.00;0.00;0.62;0.00;0.00;0.62;4.63;3.80;;;24.00;30.00;;;;;;2252371;61;20891;-57
2023/10/31 09:19:21;0.00;0.00;0.62;0.00;0.00;0.62;5.40;3.77;;;24.00;30.00;;;;;;2252214;61;20371;-62
2023/10/31 09:22:06;0.00;0.00;0.62;0.00;0.00;0.62;5.90;4.43;;;24.00;30.00;;;;;;2252587;61;20459;-60
2023/10/31 09:24:51;0.00;0.00;0.62;0.00;0.00;0.62;4.43;3.60;;;24.00;30.00;;;;;;2252332;61;20411;-60
2023/10/31 09:27:35;0.00;0.00;0.62;0.00;0.00;0.62;3.70;3.10;;;24.10;30.10;;;;;;2252479;61;20366;-61
2023/10/31 09:30:20;0.00;0.00;0.62;0.00;0.00;0.62;5.37;4.07;;;24.00;30.00;;;;;;2252369;61;20474;-62
2023/10/31 09:33:06;0.00;0.00;0.62;0.00;0.00;0.62;5.57;4.60;;;24.00;30.00;;;;;;2252225;61;20887;-60
2023/10/31 09:35:51;0.00;0.00;0.62;0.00;0.00;0.62;4.73;3.60;;;24.00;30.00;;;;;;2252634;61;20394;-59
2023/10/31 09:38:35;0.00;0.00;0.62;0.00;0.00;0.62;4.80;3.60;;;24.00;30.00;;;;;;2251808;61;20406;-60
2023/10/31 09:41:20;0.00;0.00;0.62;0.00;0.00;0.62;4.50;3.67;;;24.10;30.00;;;;;;2252556;61;20410;-60
2023/10/31 09:44:06;0.00;0.00;0.62;0.00;0.00;0.62;4.67;3.90;;;24.10;30.00;;;;;;2252519;61;20382;-59
2023/10/31 09:46:52;0.00;0.00;0.62;0.00;0.00;0.62;6.00;4.33;;;24.10;30.00;;;;;;2252508;61;20381;-62
2023/10/31 09:49:38;0.00;0.00;0.62;0.00;0.00;0.62;4.63;3.97;;;24.10;30.00;;;;;;2251811;61;20793;-60
2023/10/31 09:52:23;0.00;0.00;0.62;0.00;0.00;0.62;5.20;4.10;;;24.10;30.00;;;;;;2252519;61;20954;-57
2023/10/31 09:55:08;0.00;0.00;0.62;0.00;0.00;0.62;4.63;3.90;;;24.10;30.00;;;;;;2252175;61;20386;-61
2023/10/31 09:57:54;0.00;0.00;0.62;0.00;0.00;0.62;4.50;3.53;;;24.10;30.00;;;;;;2252114;61;20362;-62
2023/10/31 10:00:40;0.00;0.00;0.62;0.00;0.00;0.62;5.47;4.20;;;24.10;30.00;;;;;;2252518;61;20850;-61
2023/10/31 10:03:25;0.00;0.00;0.62;0.00;0.00;0.62;5.47;4.40;;;24.00;29.90;;;;;;2252596;61;20414;-56
2023/10/31 10:06:12;0.00;0.00;0.62;0.00;0.00;0.62;7.10;4.27;;;24.10;30.00;;;;;;2252464;61;20679;-57
2023/10/31 10:08:57;0.00;0.00;0.62;0.00;0.00;0.62;5.40;4.73;;;24.10;30.00;;;;;;2251875;61;20884;-57
2023/10/31 10:11:41;0.00;0.00;0.62;0.00;0.00;0.62;5.67;4.60;;;24.10;30.00;;;;;;2252539;61;20406;-59
2023/10/31 10:14:28;0.00;0.00;0.62;0.00;0.00;0.62;5.60;4.90;;;24.10;29.90;;;;;;2252295;61;20398;-62
2023/10/31 10:17:18;0.00;0.00;0.62;0.00;0.00;0.62;5.13;4.60;;;24.10;29.90;;;;;;2252453;61;20362;-59
2023/10/31 10:20:08;0.00;0.00;0.62;0.00;0.00;0.62;5.67;4.30;;;24.10;29.90;;;;;;2252078;61;20375;-61
2023/10/31 10:22:55;0.00;0.00;0.62;0.00;0.00;0.62;5.27;4.20;;;24.10;29.90;;;;;;2252161;61;20374;-59
2023/10/31 10:25:42;0.00;0.00;0.62;0.00;0.00;0.62;5.67;4.63;;;24.00;30.40;;;;;;2252490;61;20483;-62
2023/10/31 10:28:29;0.00;0.00;0.62;0.00;0.00;0.62;5.53;4.80;;;24.10;29.90;;;;;;2252551;61;20923;-56
2023/10/31 10:31:15;0.00;0.00;0.62;0.00;0.00;0.62;5.37;3.70;;;24.10;29.90;;;;;;2253110;61;20745;-59
2023/10/31 10:34:01;0.00;0.00;0.62;0.00;0.00;0.62;5.10;4.60;;;24.10;29.90;;;;;;2249695;61;20879;-60
2023/10/31 10:36:52;0.00;0.00;0.62;0.00;0.00;0.62;5.93;4.30;;;24.10;29.90;;;;;;2253042;61;20427;-61
2023/10/31 10:39:40;0.00;0.00;0.62;0.00;0.00;0.62;7.10;5.47;;;24.10;29.90;;;;;;2252505;61;20853;-59
2023/10/31 10:42:35;0.00;0.00;0.62;0.00;0.00;0.62;5.70;4.93;;;24.10;29.90;;;;;;2252828;61;20379;-56
2023/10/31 10:45:20;0.00;0.00;0.62;0.00;0.00;0.62;5.17;4.47;;;24.10;29.90;;;;;;2252996;61;20923;-58
2023/10/31 10:48:11;0.00;0.00;0.62;0.00;0.00;0.62;6.63;5.40;;;24.10;29.90;;;;;;2252763;61;20417;-57
2023/10/31 10:51:04;0.00;0.00;0.62;0.00;0.00;0.62;6.93;4.93;;;24.10;29.90;;;;;;2252556;61;20418;-59
2023/10/31 10:53:52;0.00;0.00;0.62;0.00;0.00;0.62;5.13;4.20;;;24.10;29.90;;;;;;2252876;61;20461;-60